Terminal Aerodrome Forecast
Issued by NWS

Home | Current Version | Previous Version | Text Only | Print | Product List | Glossary On
Versions: 1 2 3 4 5 6 7 8 9 10 11 12 13 14 15 16 17 18 19 20 21 22 23 24 25 26 27 28 29 30 31 32 33 34 35 36 37 38 39 40 41 42 43 44 45 46 47 48 49 50
000
FTUS44 KHGX 232340
TAFCXO
TAF
KCXO 232340Z 2400/2424 14018G25KT P6SM SKC
     FM240300 15010KT P6SM SCT015
     FM240700 16008KT P6SM OVC015
     FM241600 18016KT P6SM VCSH BKN025
     FM241900 19018G26KT P6SM -TSRA VCTS OVC030CB
      TEMPO 2420/2423 VRB30KT 3SM TSRA=

USA.gov is the U.S. government's official web portal to all federal, state and local government web resources and services.